createdAt,value
2018-02-20T12:55:17.750Z,32.41
2018-02-20T12:55:18.294Z,32.41
2018-02-20T12:55:18.789Z,32.31
2018-02-20T12:55:19.296Z,32.31
2018-02-20T12:56:12.839Z,30.67
2018-02-20T12:56:13.356Z,30.58
2018-02-20T12:56:13.928Z,30.58
2018-02-20T12:56:14.488Z,30.67
2018-02-20T12:56:15.061Z,30.48
2018-02-20T12:56:15.615Z,30.77
2018-02-20T12:56:16.169Z,30.77
2018-02-20T12:56:16.705Z,30.96
2018-02-20T12:57:10.420Z,28.94
2018-02-20T12:57:10.891Z,28.95
2018-02-20T12:57:11.430Z,28.84
2018-02-20T12:57:12.007Z,28.94
2018-02-20T12:57:12.528Z,28.84
2018-02-20T12:57:13.041Z,28.94
2018-02-20T12:57:13.548Z,28.94
2018-02-20T12:57:14.072Z,28.84
2018-02-20T12:57:14.550Z,29.03
2018-02-20T12:57:15.124Z,28.94
2018-02-20T12:57:15.640Z,29.03
2018-02-20T12:57:16.160Z,28.94
2018-02-20T12:57:16.784Z,28.94
2018-02-20T12:57:17.241Z,29.03
2018-02-20T12:57:17.808Z,29.03
2018-02-20T12:57:18.320Z,29.13
2018-02-20T12:57:18.840Z,29.22
2018-02-20T12:57:19.370Z,28.74
2018-02-20T12:57:19.892Z,28.64
2018-02-20T12:57:20.490Z,28.55
2018-02-20T12:57:21.012Z,28.64
2018-02-20T12:57:21.570Z,28.55
2018-02-20T12:57:22.082Z,28.55
2018-02-20T12:57:22.589Z,28.56
2018-02-20T12:57:23.142Z,28.74
2018-02-20T12:57:23.602Z,28.55
2018-02-20T12:57:24.162Z,28.64
2018-02-20T12:57:24.726Z,28.84
2018-02-20T12:57:25.421Z,28.64
2018-02-20T12:57:26.060Z,28.74
2018-02-20T12:57:26.553Z,28.84
2018-02-20T12:57:27.079Z,28.64
2018-02-20T12:57:27.598Z,28.84
2018-02-20T12:58:41.597Z,28.76
2018-02-20T12:58:42.144Z,28.64
2018-02-20T12:58:42.650Z,28.74
2018-02-20T12:58:43.203Z,28.84
2018-02-20T12:58:43.716Z,28.85
2018-02-20T12:58:44.235Z,28.74
2018-02-20T13:14:15.224Z,25.19
2018-02-20T13:14:15.738Z,25.19
2018-02-20T13:14:16.252Z,25.39
2018-02-20T13:14:16.830Z,25.29
2018-02-20T13:14:17.375Z,25.38
2018-02-20T13:14:17.952Z,25.48
2018-02-20T13:15:11.987Z,25.86
2018-02-20T13:15:12.444Z,25.87
2018-02-20T13:15:12.976Z,25.78
2018-02-20T13:15:13.517Z,25.86
2018-02-20T13:15:14.047Z,25.86
2018-02-20T13:15:14.556Z,25.87
2018-02-20T13:15:15.135Z,25.97
2018-02-20T13:15:15.666Z,25.97
2018-02-20T13:15:16.167Z,26.06
2018-02-20T13:15:16.685Z,25.96
2018-02-20T13:16:10.302Z,25.96
2018-02-20T13:16:10.847Z,25.78
2018-02-20T13:16:11.343Z,25.97
2018-02-20T13:16:11.893Z,25.97
2018-02-20T13:16:12.416Z,25.87
2018-02-20T13:16:12.934Z,25.97
2018-02-20T13:16:13.486Z,25.97
2018-02-20T13:16:14.026Z,25.97
